sensor_id;sensor_type;location;lat;lon;timestamp;temperature;humidity
7518;DHT22;3800;48.922;9.444;2023-04-25T00:00:37;8.70;99.90
7518;DHT22;3800;48.922;9.444;2023-04-25T00:03:07;8.60;99.90
7518;DHT22;3800;48.922;9.444;2023-04-25T00:05:35;8.60;99.90
7518;DHT22;3800;48.922;9.444;2023-04-25T00:08:03;8.50;99.90
7518;DHT22;3800;48.922;9.444;2023-04-25T00:10:32;8.50;99.90
7518;DHT22;3800;48.922;9.444;2023-04-25T00:13:00;8.40;99.90
7518;DHT22;3800;48.922;9.444;2023-04-25T00:15:28;8.40;99.90
7518;DHT22;3800;48.922;9.444;2023-04-25T00:17:59;8.30;99.90
7518;DHT22;3800;48.922;9.444;2023-04-25T00:20:27;8.20;99.90
7518;DHT22;3800;48.922;9.444;2023-04-25T00:22:55;8.20;99.90
7518;DHT22;3800;48.922;9.444;2023-04-25T00:25:24;8.20;99.90
7518;DHT22;3800;48.922;9.444;2023-04-25T00:27:52;8.10;99.90
7518;DHT22;3800;48.922;9.444;2023-04-25T00:30:20;8.10;99.90
7518;DHT22;3800;48.922;9.444;2023-04-25T00:32:48;8.10;99.90
7518;DHT22;3800;48.922;9.444;2023-04-25T00:35:17;8.10;99.90
7518;DHT22;3800;48.922;9.444;2023-04-25T00:37:46;8.10;99.90
7518;DHT22;3800;48.922;9.444;2023-04-25T00:40:14;8.10;99.90
7518;DHT22;3800;48.922;9.444;2023-04-25T00:42:42;8.10;99.90
7518;DHT22;3800;48.922;9.444;2023-04-25T00:45:12;8.10;99.90
7518;DHT22;3800;48.922;9.444;2023-04-25T00:47:39;8.00;99.90
7518;DHT22;3800;48.922;9.444;2023-04-25T00:50:07;8.10;99.90
7518;DHT22;3800;48.922;9.444;2023-04-25T00:52:38;8.00;99.90
7518;DHT22;3800;48.922;9.444;2023-04-25T00:55:06;8.00;99.90
7518;DHT22;3800;48.922;9.444;2023-04-25T00:57:34;8.00;99.90
7518;DHT22;3800;48.922;9.444;2023-04-25T01:00:03;8.00;99.90
7518;DHT22;3800;48.922;9.444;2023-04-25T01:02:33;8.00;99.90
7518;DHT22;3800;48.922;9.444;2023-04-25T01:05:01;8.00;99.90
7518;DHT22;3800;48.922;9.444;2023-04-25T01:07:29;8.00;99.90
7518;DHT22;3800;48.922;9.444;2023-04-25T01:09:58;7.90;99.90
7518;DHT22;3800;48.922;9.444;2023-04-25T01:12:26;7.90;99.90
7518;DHT22;3800;48.922;9.444;2023-04-25T01:14:55;8.00;99.90
7518;DHT22;3800;48.922;9.444;2023-04-25T01:17:23;8.00;99.90
7518;DHT22;3800;48.922;9.444;2023-04-25T01:19:51;8.00;99.90
7518;DHT22;3800;48.922;9.444;2023-04-25T01:22:19;8.00;99.90
7518;DHT22;3800;48.922;9.444;2023-04-25T01:24:48;8.00;99.90
7518;DHT22;3800;48.922;9.444;2023-04-25T01:27:16;8.00;99.90
7518;DHT22;3800;48.922;9.444;2023-04-25T01:29:44;8.00;99.90
7518;DHT22;3800;48.922;9.444;2023-04-25T01:32:13;7.90;99.90
7518;DHT22;3800;48.922;9.444;2023-04-25T01:34:41;7.90;99.90
7518;DHT22;3800;48.922;9.444;2023-04-25T01:37:09;7.90;99.90
7518;DHT22;3800;48.922;9.444;2023-04-25T01:39:38;7.90;99.90
7518;DHT22;3800;48.922;9.444;2023-04-25T01:42:06;7.90;99.90
7518;DHT22;3800;48.922;9.444;2023-04-25T01:44:34;7.90;99.90
7518;DHT22;3800;48.922;9.444;2023-04-25T01:47:03;7.90;99.90
7518;DHT22;3800;48.922;9.444;2023-04-25T01:49:31;7.90;99.90
7518;DHT22;3800;48.922;9.444;2023-04-25T01:51:59;7.80;99.90
7518;DHT22;3800;48.922;9.444;2023-04-25T01:54:27;7.80;99.90
7518;DHT22;3800;48.922;9.444;2023-04-25T01:56:56;7.80;99.90
7518;DHT22;3800;48.922;9.444;2023-04-25T01:59:25;7.70;99.90
7518;DHT22;3800;48.922;9.444;2023-04-25T02:01:53;7.70;99.90
7518;DHT22;3800;48.922;9.444;2023-04-25T02:04:21;7.70;99.90
7518;DHT22;3800;48.922;9.444;2023-04-25T02:06:49;7.70;99.90
7518;DHT22;3800;48.922;9.444;2023-04-25T02:09:18;7.70;99.90
7518;DHT22;3800;48.922;9.444;2023-04-25T02:11:46;7.70;99.90
7518;DHT22;3800;48.922;9.444;2023-04-25T02:14:14;7.70;99.90
7518;DHT22;3800;48.922;9.444;2023-04-25T02:16:42;7.60;99.90
7518;DHT22;3800;48.922;9.444;2023-04-25T02:19:11;7.60;99.90
7518;DHT22;3800;48.922;9.444;2023-04-25T02:21:40;7.60;99.90
7518;DHT22;3800;48.922;9.444;2023-04-25T02:24:09;7.60;99.90
7518;DHT22;3800;48.922;9.444;2023-04-25T02:26:38;7.50;99.90
7518;DHT22;3800;48.922;9.444;2023-04-25T02:29:07;7.50;99.90
7518;DHT22;3800;48.922;9.444;2023-04-25T02:31:35;7.50;99.90
7518;DHT22;3800;48.922;9.444;2023-04-25T02:34:04;7.50;99.90
7518;DHT22;3800;48.922;9.444;2023-04-25T02:36:33;7.50;99.90
7518;DHT22;3800;48.922;9.444;2023-04-25T02:39:01;7.50;99.90
7518;DHT22;3800;48.922;9.444;2023-04-25T02:41:29;7.50;99.90
7518;DHT22;3800;48.922;9.444;2023-04-25T02:43:58;7.50;99.90
7518;DHT22;3800;48.922;9.444;2023-04-25T02:46:26;7.60;99.90
7518;DHT22;3800;48.922;9.444;2023-04-25T02:48:55;7.60;99.90
7518;DHT22;3800;48.922;9.444;2023-04-25T02:51:23;7.50;99.90
7518;DHT22;3800;48.922;9.444;2023-04-25T02:53:51;7.50;99.90
7518;DHT22;3800;48.922;9.444;2023-04-25T02:56:20;7.50;99.90
7518;DHT22;3800;48.922;9.444;2023-04-25T02:58:48;7.50;99.90
7518;DHT22;3800;48.922;9.444;2023-04-25T03:01:16;7.50;99.90
7518;DHT22;3800;48.922;9.444;2023-04-25T03:03:44;7.50;99.90
7518;DHT22;3800;48.922;9.444;2023-04-25T03:06:13;7.50;99.90
7518;DHT22;3800;48.922;9.444;2023-04-25T03:08:41;7.50;99.90
7518;DHT22;3800;48.922;9.444;2023-04-25T03:11:09;7.50;99.90
7518;DHT22;3800;48.922;9.444;2023-04-25T03:13:38;7.50;99.90
7518;DHT22;3800;48.922;9.444;2023-04-25T03:16:06;7.50;99.90
7518;DHT22;3800;48.922;9.444;2023-04-25T03:18:35;7.50;99.90
7518;DHT22;3800;48.922;9.444;2023-04-25T03:21:03;7.50;99.90
7518;DHT22;3800;48.922;9.444;2023-04-25T03:23:31;7.50;99.90
7518;DHT22;3800;48.922;9.444;2023-04-25T03:26:00;7.50;99.90
7518;DHT22;3800;48.922;9.444;2023-04-25T03:28:28;7.50;99.90
7518;DHT22;3800;48.922;9.444;2023-04-25T03:30:56;7.50;99.90
7518;DHT22;3800;48.922;9.444;2023-04-25T03:33:24;7.50;99.90
7518;DHT22;3800;48.922;9.444;2023-04-25T03:35:53;7.60;99.90
7518;DHT22;3800;48.922;9.444;2023-04-25T03:38:21;7.60;99.90
7518;DHT22;3800;48.922;9.444;2023-04-25T03:40:50;7.60;99.90
7518;DHT22;3800;48.922;9.444;2023-04-25T03:43:18;7.60;99.90
7518;DHT22;3800;48.922;9.444;2023-04-25T03:45:46;7.50;99.90
7518;DHT22;3800;48.922;9.444;2023-04-25T03:48:14;7.50;99.90
7518;DHT22;3800;48.922;9.444;2023-04-25T03:50:43;7.50;99.90
7518;DHT22;3800;48.922;9.444;2023-04-25T03:53:11;7.50;99.90
7518;DHT22;3800;48.922;9.444;2023-04-25T03:55:39;7.50;99.90
7518;DHT22;3800;48.922;9.444;2023-04-25T03:58:08;7.50;99.90
7518;DHT22;3800;48.922;9.444;2023-04-25T04:00:36;7.50;99.90
7518;DHT22;3800;48.922;9.444;2023-04-25T04:03:05;7.50;99.90
7518;DHT22;3800;48.922;9.444;2023-04-25T04:05:33;7.50;99.90
7518;DHT22;3800;48.922;9.444;2023-04-25T04:08:01;7.50;99.90
7518;DHT22;3800;48.922;9.444;2023-04-25T04:10:29;7.60;99.90
7518;DHT22;3800;48.922;9.444;2023-04-25T04:12:58;7.60;99.90
7518;DHT22;3800;48.922;9.444;2023-04-25T04:15:26;7.60;99.90
7518;DHT22;3800;48.922;9.444;2023-04-25T04:17:55;7.60;99.90
7518;DHT22;3800;48.922;9.444;2023-04-25T04:20:23;7.60;99.90
7518;DHT22;3800;48.922;9.444;2023-04-25T04:22:51;7.60;99.90
7518;DHT22;3800;48.922;9.444;2023-04-25T04:25:20;7.60;99.90
7518;DHT22;3800;48.922;9.444;2023-04-25T04:27:48;7.60;99.90
7518;DHT22;3800;48.922;9.444;2023-04-25T04:30:16;7.60;99.90
7518;DHT22;3800;48.922;9.444;2023-04-25T04:32:44;7.60;99.90
7518;DHT22;3800;48.922;9.444;2023-04-25T04:35:14;7.60;99.90
7518;DHT22;3800;48.922;9.444;2023-04-25T04:37:43;7.60;99.90
7518;DHT22;3800;48.922;9.444;2023-04-25T04:40:11;7.60;99.90
7518;DHT22;3800;48.922;9.444;2023-04-25T04:42:41;7.60;99.90
7518;DHT22;3800;48.922;9.444;2023-04-25T04:45:10;7.60;99.90
7518;DHT22;3800;48.922;9.444;2023-04-25T04:47:38;7.60;99.90
7518;DHT22;3800;48.922;9.444;2023-04-25T04:50:07;7.60;99.90
7518;DHT22;3800;48.922;9.444;2023-04-25T04:52:36;7.60;99.90
7518;DHT22;3800;48.922;9.444;2023-04-25T04:55:05;7.60;99.90
7518;DHT22;3800;48.922;9.444;2023-04-25T04:57:35;7.60;99.90
7518;DHT22;3800;48.922;9.444;2023-04-25T05:00:05;7.70;99.90
7518;DHT22;3800;48.922;9.444;2023-04-25T05:02:34;7.70;99.90
7518;DHT22;3800;48.922;9.444;2023-04-25T05:05:03;7.70;99.90
7518;DHT22;3800;48.922;9.444;2023-04-25T05:07:31;7.70;99.90
7518;DHT22;3800;48.922;9.444;2023-04-25T05:09:59;7.80;99.90
7518;DHT22;3800;48.922;9.444;2023-04-25T05:12:27;7.90;99.90
7518;DHT22;3800;48.922;9.444;2023-04-25T05:14:57;7.90;99.90
7518;DHT22;3800;48.922;9.444;2023-04-25T05:17:26;7.90;99.90
7518;DHT22;3800;48.922;9.444;2023-04-25T05:19:54;7.90;99.90
7518;DHT22;3800;48.922;9.444;2023-04-25T05:22:22;8.00;99.90
7518;DHT22;3800;48.922;9.444;2023-04-25T05:24:51;8.00;99.90
7518;DHT22;3800;48.922;9.444;2023-04-25T05:27:19;8.00;99.90
7518;DHT22;3800;48.922;9.444;2023-04-25T05:29:48;8.00;99.90
7518;DHT22;3800;48.922;9.444;2023-04-25T05:32:17;8.10;99.90
7518;DHT22;3800;48.922;9.444;2023-04-25T05:34:46;8.00;99.90
7518;DHT22;3800;48.922;9.444;2023-04-25T05:37:14;8.00;99.90
7518;DHT22;3800;48.922;9.444;2023-04-25T05:42:16;8.10;99.90
7518;DHT22;3800;48.922;9.444;2023-04-25T05:44:45;8.10;99.90
7518;DHT22;3800;48.922;9.444;2023-04-25T05:47:13;8.10;99.90
7518;DHT22;3800;48.922;9.444;2023-04-25T05:49:41;8.20;99.90
7518;DHT22;3800;48.922;9.444;2023-04-25T05:52:09;8.20;99.90
7518;DHT22;3800;48.922;9.444;2023-04-25T05:54:38;8.30;99.90
7518;DHT22;3800;48.922;9.444;2023-04-25T05:57:06;8.30;99.90
7518;DHT22;3800;48.922;9.444;2023-04-25T05:59:34;8.30;99.90
7518;DHT22;3800;48.922;9.444;2023-04-25T06:02:02;8.30;99.90
7518;DHT22;3800;48.922;9.444;2023-04-25T06:04:31;8.30;99.90
7518;DHT22;3800;48.922;9.444;2023-04-25T06:06:59;8.30;99.90
7518;DHT22;3800;48.922;9.444;2023-04-25T06:09:27;8.30;99.90
7518;DHT22;3800;48.922;9.444;2023-04-25T06:11:55;8.30;99.90
7518;DHT22;3800;48.922;9.444;2023-04-25T06:14:24;8.20;99.90
7518;DHT22;3800;48.922;9.444;2023-04-25T06:16:53;8.20;99.90
7518;DHT22;3800;48.922;9.444;2023-04-25T06:19:21;8.20;99.90
7518;DHT22;3800;48.922;9.444;2023-04-25T06:21:49;8.10;99.90
7518;DHT22;3800;48.922;9.444;2023-04-25T06:24:17;8.10;99.90
7518;DHT22;3800;48.922;9.444;2023-04-25T06:26:46;8.10;99.90
7518;DHT22;3800;48.922;9.444;2023-04-25T06:29:14;8.10;99.90
7518;DHT22;3800;48.922;9.444;2023-04-25T06:31:42;8.10;99.90
7518;DHT22;3800;48.922;9.444;2023-04-25T06:34:10;8.20;99.90
7518;DHT22;3800;48.922;9.444;2023-04-25T06:36:39;8.30;99.90
7518;DHT22;3800;48.922;9.444;2023-04-25T06:39:07;8.30;99.90
7518;DHT22;3800;48.922;9.444;2023-04-25T06:41:35;8.40;99.90
7518;DHT22;3800;48.922;9.444;2023-04-25T06:44:03;8.50;99.90
7518;DHT22;3800;48.922;9.444;2023-04-25T06:46:32;8.50;99.90
7518;DHT22;3800;48.922;9.444;2023-04-25T06:49:00;8.50;99.90
7518;DHT22;3800;48.922;9.444;2023-04-25T06:51:28;8.60;99.90
7518;DHT22;3800;48.922;9.444;2023-04-25T06:53:56;8.70;99.90
7518;DHT22;3800;48.922;9.444;2023-04-25T06:56:25;8.70;99.90
7518;DHT22;3800;48.922;9.444;2023-04-25T06:58:53;8.80;99.90
7518;DHT22;3800;48.922;9.444;2023-04-25T07:01:21;8.90;99.90
7518;DHT22;3800;48.922;9.444;2023-04-25T07:03:49;8.80;99.90
7518;DHT22;3800;48.922;9.444;2023-04-25T07:06:18;8.80;99.90
7518;DHT22;3800;48.922;9.444;2023-04-25T07:08:46;8.80;99.90
7518;DHT22;3800;48.922;9.444;2023-04-25T07:11:14;8.80;99.90
7518;DHT22;3800;48.922;9.444;2023-04-25T07:13:42;8.80;99.90
7518;DHT22;3800;48.922;9.444;2023-04-25T07:16:11;8.80;99.90
7518;DHT22;3800;48.922;9.444;2023-04-25T07:18:39;8.80;99.90
7518;DHT22;3800;48.922;9.444;2023-04-25T07:21:07;8.80;99.90
7518;DHT22;3800;48.922;9.444;2023-04-25T07:23:35;8.80;99.90
7518;DHT22;3800;48.922;9.444;2023-04-25T07:26:04;8.80;99.90
7518;DHT22;3800;48.922;9.444;2023-04-25T07:28:32;8.80;99.90
7518;DHT22;3800;48.922;9.444;2023-04-25T07:31:00;8.80;99.90
7518;DHT22;3800;48.922;9.444;2023-04-25T07:33:28;8.90;99.90
7518;DHT22;3800;48.922;9.444;2023-04-25T07:35:57;8.90;99.90
7518;DHT22;3800;48.922;9.444;2023-04-25T07:38:25;9.00;99.90
7518;DHT22;3800;48.922;9.444;2023-04-25T07:40:53;9.10;99.90
7518;DHT22;3800;48.922;9.444;2023-04-25T07:43:21;9.10;99.90
7518;DHT22;3800;48.922;9.444;2023-04-25T07:45:50;9.10;99.90
7518;DHT22;3800;48.922;9.444;2023-04-25T07:48:18;9.10;99.90
7518;DHT22;3800;48.922;9.444;2023-04-25T07:50:46;9.10;99.90
7518;DHT22;3800;48.922;9.444;2023-04-25T07:53:14;9.10;99.90
7518;DHT22;3800;48.922;9.444;2023-04-25T07:55:43;9.00;99.90
7518;DHT22;3800;48.922;9.444;2023-04-25T07:58:11;9.00;99.90
7518;DHT22;3800;48.922;9.444;2023-04-25T08:00:39;8.90;99.90
7518;DHT22;3800;48.922;9.444;2023-04-25T08:03:09;8.90;99.90
7518;DHT22;3800;48.922;9.444;2023-04-25T08:05:36;8.80;99.90
7518;DHT22;3800;48.922;9.444;2023-04-25T08:08:05;8.70;99.90
7518;DHT22;3800;48.922;9.444;2023-04-25T08:10:33;8.70;99.90
7518;DHT22;3800;48.922;9.444;2023-04-25T08:13:01;8.70;99.90
7518;DHT22;3800;48.922;9.444;2023-04-25T08:15:29;8.60;99.90
7518;DHT22;3800;48.922;9.444;2023-04-25T08:17:58;8.50;99.90
7518;DHT22;3800;48.922;9.444;2023-04-25T08:20:26;8.50;99.90
7518;DHT22;3800;48.922;9.444;2023-04-25T08:22:54;8.40;99.90
7518;DHT22;3800;48.922;9.444;2023-04-25T08:25:23;8.30;99.90
7518;DHT22;3800;48.922;9.444;2023-04-25T08:27:51;8.30;99.90
7518;DHT22;3800;48.922;9.444;2023-04-25T08:30:20;8.30;99.90
7518;DHT22;3800;48.922;9.444;2023-04-25T08:32:48;8.40;99.90
7518;DHT22;3800;48.922;9.444;2023-04-25T08:35:16;8.40;99.90
7518;DHT22;3800;48.922;9.444;2023-04-25T08:37:45;8.70;99.90
7518;DHT22;3800;48.922;9.444;2023-04-25T08:40:14;8.70;99.90
7518;DHT22;3800;48.922;9.444;2023-04-25T08:42:42;8.80;99.90
7518;DHT22;3800;48.922;9.444;2023-04-25T08:45:10;8.80;99.90
7518;DHT22;3800;48.922;9.444;2023-04-25T08:47:39;9.10;99.90
7518;DHT22;3800;48.922;9.444;2023-04-25T08:50:07;9.00;99.90
7518;DHT22;3800;48.922;9.444;2023-04-25T08:52:37;9.10;99.90
7518;DHT22;3800;48.922;9.444;2023-04-25T08:55:04;9.20;99.90
7518;DHT22;3800;48.922;9.444;2023-04-25T08:57:33;9.20;99.90
7518;DHT22;3800;48.922;9.444;2023-04-25T09:00:01;9.30;99.90
7518;DHT22;3800;48.922;9.444;2023-04-25T09:02:29;9.30;99.90
7518;DHT22;3800;48.922;9.444;2023-04-25T09:04:58;9.30;99.90
7518;DHT22;3800;48.922;9.444;2023-04-25T09:07:26;9.30;99.90
7518;DHT22;3800;48.922;9.444;2023-04-25T09:09:54;9.30;99.90
7518;DHT22;3800;48.922;9.444;2023-04-25T09:12:23;9.30;99.90
7518;DHT22;3800;48.922;9.444;2023-04-25T09:15:02;9.30;99.90
7518;DHT22;3800;48.922;9.444;2023-04-25T09:17:29;9.30;99.90
7518;DHT22;3800;48.922;9.444;2023-04-25T09:20:08;9.30;99.90
7518;DHT22;3800;48.922;9.444;2023-04-25T09:22:37;9.30;99.90
7518;DHT22;3800;48.922;9.444;2023-04-25T09:25:09;9.40;99.90
7518;DHT22;3800;48.922;9.444;2023-04-25T09:27:48;9.40;99.90
7518;DHT22;3800;48.922;9.444;2023-04-25T09:30:28;9.50;99.90
7518;DHT22;3800;48.922;9.444;2023-04-25T09:32:56;9.60;99.90
7518;DHT22;3800;48.922;9.444;2023-04-25T09:35:25;9.60;99.90
7518;DHT22;3800;48.922;9.444;2023-04-25T09:37:53;9.70;99.90
7518;DHT22;3800;48.922;9.444;2023-04-25T09:40:22;9.70;99.90
7518;DHT22;3800;48.922;9.444;2023-04-25T09:42:51;9.90;99.90
7518;DHT22;3800;48.922;9.444;2023-04-25T09:45:19;9.90;99.90
7518;DHT22;3800;48.922;9.444;2023-04-25T09:47:48;9.90;99.90
7518;DHT22;3800;48.922;9.444;2023-04-25T09:50:17;9.90;99.90
7518;DHT22;3800;48.922;9.444;2023-04-25T09:52:45;9.80;99.90
7518;DHT22;3800;48.922;9.444;2023-04-25T09:55:14;9.80;99.90
7518;DHT22;3800;48.922;9.444;2023-04-25T09:57:42;9.80;99.90
7518;DHT22;3800;48.922;9.444;2023-04-25T10:00:11;9.90;99.90
7518;DHT22;3800;48.922;9.444;2023-04-25T10:02:40;9.90;99.90
7518;DHT22;3800;48.922;9.444;2023-04-25T10:05:09;9.80;99.90
7518;DHT22;3800;48.922;9.444;2023-04-25T10:07:37;9.80;99.90
7518;DHT22;3800;48.922;9.444;2023-04-25T10:10:06;9.80;99.90
7518;DHT22;3800;48.922;9.444;2023-04-25T10:12:35;9.70;99.90
7518;DHT22;3800;48.922;9.444;2023-04-25T10:15:03;9.70;99.90
7518;DHT22;3800;48.922;9.444;2023-04-25T10:17:32;9.70;99.90
7518;DHT22;3800;48.922;9.444;2023-04-25T10:20:01;9.70;99.90
7518;DHT22;3800;48.922;9.444;2023-04-25T10:22:30;9.60;99.90
7518;DHT22;3800;48.922;9.444;2023-04-25T10:24:57;9.40;99.90
7518;DHT22;3800;48.922;9.444;2023-04-25T10:27:27;9.30;99.90
7518;DHT22;3800;48.922;9.444;2023-04-25T10:30:02;9.00;99.90
7518;DHT22;3800;48.922;9.444;2023-04-25T10:32:31;8.90;99.90
7518;DHT22;3800;48.922;9.444;2023-04-25T10:35:10;8.60;99.90
7518;DHT22;3800;48.922;9.444;2023-04-25T10:37:38;8.30;99.90
7518;DHT22;3800;48.922;9.444;2023-04-25T10:40:08;8.00;99.90
7518;DHT22;3800;48.922;9.444;2023-04-25T10:42:37;7.60;99.90
7518;DHT22;3800;48.922;9.444;2023-04-25T10:45:06;7.60;99.90
7518;DHT22;3800;48.922;9.444;2023-04-25T10:47:35;7.50;99.90
7518;DHT22;3800;48.922;9.444;2023-04-25T10:50:06;7.40;99.90
7518;DHT22;3800;48.922;9.444;2023-04-25T10:52:34;7.20;99.90
7518;DHT22;3800;48.922;9.444;2023-04-25T10:55:03;7.20;99.90
7518;DHT22;3800;48.922;9.444;2023-04-25T10:57:47;7.10;99.90
7518;DHT22;3800;48.922;9.444;2023-04-25T11:00:17;7.10;99.90
7518;DHT22;3800;48.922;9.444;2023-04-25T11:02:47;7.10;99.90
7518;DHT22;3800;48.922;9.444;2023-04-25T11:05:34;7.00;99.90
7518;DHT22;3800;48.922;9.444;2023-04-25T11:08:01;7.10;99.90
7518;DHT22;3800;48.922;9.444;2023-04-25T11:10:30;7.10;99.90
7518;DHT22;3800;48.922;9.444;2023-04-25T11:12:58;7.10;99.90
7518;DHT22;3800;48.922;9.444;2023-04-25T11:15:26;7.10;99.90
7518;DHT22;3800;48.922;9.444;2023-04-25T11:17:55;7.10;99.90
7518;DHT22;3800;48.922;9.444;2023-04-25T11:20:25;7.10;99.90
7518;DHT22;3800;48.922;9.444;2023-04-25T11:22:51;7.20;99.90
7518;DHT22;3800;48.922;9.444;2023-04-25T11:25:19;7.10;99.90
7518;DHT22;3800;48.922;9.444;2023-04-25T11:27:53;7.10;99.90
7518;DHT22;3800;48.922;9.444;2023-04-25T11:30:22;7.10;99.90
7518;DHT22;3800;48.922;9.444;2023-04-25T11:32:51;7.10;99.90
7518;DHT22;3800;48.922;9.444;2023-04-25T11:35:19;7.30;99.90
7518;DHT22;3800;48.922;9.444;2023-04-25T11:37:47;7.40;99.90
7518;DHT22;3800;48.922;9.444;2023-04-25T11:40:15;7.40;99.90
7518;DHT22;3800;48.922;9.444;2023-04-25T11:42:45;7.40;99.90
7518;DHT22;3800;48.922;9.444;2023-04-25T11:45:13;7.40;99.90
7518;DHT22;3800;48.922;9.444;2023-04-25T11:47:41;7.50;99.90
7518;DHT22;3800;48.922;9.444;2023-04-25T11:50:09;7.60;99.90
7518;DHT22;3800;48.922;9.444;2023-04-25T11:52:38;7.60;99.90
7518;DHT22;3800;48.922;9.444;2023-04-25T11:55:09;7.60;99.90
7518;DHT22;3800;48.922;9.444;2023-04-25T11:57:38;7.60;99.90
7518;DHT22;3800;48.922;9.444;2023-04-25T12:00:08;7.80;99.90
7518;DHT22;3800;48.922;9.444;2023-04-25T12:02:43;8.00;99.90
7518;DHT22;3800;48.922;9.444;2023-04-25T12:05:12;8.00;99.90
7518;DHT22;3800;48.922;9.444;2023-04-25T12:07:39;8.10;99.90
7518;DHT22;3800;48.922;9.444;2023-04-25T12:10:08;8.30;99.90
7518;DHT22;3800;48.922;9.444;2023-04-25T12:12:37;8.50;99.90
7518;DHT22;3800;48.922;9.444;2023-04-25T12:15:14;8.50;99.90
7518;DHT22;3800;48.922;9.444;2023-04-25T12:17:45;8.70;99.90
7518;DHT22;3800;48.922;9.444;2023-04-25T12:20:14;8.60;99.90
7518;DHT22;3800;48.922;9.444;2023-04-25T12:22:45;8.60;99.90
7518;DHT22;3800;48.922;9.444;2023-04-25T12:25:13;8.70;99.90
7518;DHT22;3800;48.922;9.444;2023-04-25T12:27:41;8.70;99.90
7518;DHT22;3800;48.922;9.444;2023-04-25T12:30:10;8.70;99.90
7518;DHT22;3800;48.922;9.444;2023-04-25T12:32:38;8.80;99.90
7518;DHT22;3800;48.922;9.444;2023-04-25T12:35:06;8.80;99.90
7518;DHT22;3800;48.922;9.444;2023-04-25T12:37:35;8.70;99.90
7518;DHT22;3800;48.922;9.444;2023-04-25T12:40:03;8.70;99.90
7518;DHT22;3800;48.922;9.444;2023-04-25T12:42:32;8.70;99.90
7518;DHT22;3800;48.922;9.444;2023-04-25T12:45:00;8.70;99.90
7518;DHT22;3800;48.922;9.444;2023-04-25T12:47:29;8.70;99.90
7518;DHT22;3800;48.922;9.444;2023-04-25T12:49:57;8.60;99.90
7518;DHT22;3800;48.922;9.444;2023-04-25T12:52:25;8.60;99.90
7518;DHT22;3800;48.922;9.444;2023-04-25T12:54:53;8.40;99.90
7518;DHT22;3800;48.922;9.444;2023-04-25T12:57:22;8.40;99.90
7518;DHT22;3800;48.922;9.444;2023-04-25T12:59:50;8.40;99.90
7518;DHT22;3800;48.922;9.444;2023-04-25T13:02:19;8.50;99.90
7518;DHT22;3800;48.922;9.444;2023-04-25T13:04:47;8.50;99.90
7518;DHT22;3800;48.922;9.444;2023-04-25T13:07:15;8.60;99.90
7518;DHT22;3800;48.922;9.444;2023-04-25T13:09:44;8.60;99.90
7518;DHT22;3800;48.922;9.444;2023-04-25T13:12:12;8.70;99.90
7518;DHT22;3800;48.922;9.444;2023-04-25T13:14:40;8.80;99.90
7518;DHT22;3800;48.922;9.444;2023-04-25T13:17:08;8.80;99.90
7518;DHT22;3800;48.922;9.444;2023-04-25T13:19:37;8.90;99.90
7518;DHT22;3800;48.922;9.444;2023-04-25T13:22:06;8.70;99.90
7518;DHT22;3800;48.922;9.444;2023-04-25T13:24:34;8.70;99.90
7518;DHT22;3800;48.922;9.444;2023-04-25T13:27:02;8.80;99.90
7518;DHT22;3800;48.922;9.444;2023-04-25T13:29:30;8.90;99.90
7518;DHT22;3800;48.922;9.444;2023-04-25T13:31:59;9.00;99.90
7518;DHT22;3800;48.922;9.444;2023-04-25T13:34:28;9.00;99.90
7518;DHT22;3800;48.922;9.444;2023-04-25T13:36:56;9.10;99.90
7518;DHT22;3800;48.922;9.444;2023-04-25T13:39:24;9.20;99.90
7518;DHT22;3800;48.922;9.444;2023-04-25T13:41:52;9.30;99.90
7518;DHT22;3800;48.922;9.444;2023-04-25T13:44:21;9.60;99.90
7518;DHT22;3800;48.922;9.444;2023-04-25T13:46:49;9.70;99.90
7518;DHT22;3800;48.922;9.444;2023-04-25T13:49:17;9.70;99.90
7518;DHT22;3800;48.922;9.444;2023-04-25T13:51:45;9.60;99.90
7518;DHT22;3800;48.922;9.444;2023-04-25T13:54:14;9.30;99.90
7518;DHT22;3800;48.922;9.444;2023-04-25T13:56:43;9.40;99.90
7518;DHT22;3800;48.922;9.444;2023-04-25T13:59:11;9.20;99.90
7518;DHT22;3800;48.922;9.444;2023-04-25T14:01:39;9.20;99.90
7518;DHT22;3800;48.922;9.444;2023-04-25T14:04:08;9.20;99.90
7518;DHT22;3800;48.922;9.444;2023-04-25T14:06:36;9.30;99.90
7518;DHT22;3800;48.922;9.444;2023-04-25T14:09:04;9.30;99.90
7518;DHT22;3800;48.922;9.444;2023-04-25T14:11:32;9.40;99.90
7518;DHT22;3800;48.922;9.444;2023-04-25T14:14:01;9.40;99.90
7518;DHT22;3800;48.922;9.444;2023-04-25T14:16:29;9.40;99.90
7518;DHT22;3800;48.922;9.444;2023-04-25T14:18:58;9.50;99.90
7518;DHT22;3800;48.922;9.444;2023-04-25T14:21:26;9.50;99.90
7518;DHT22;3800;48.922;9.444;2023-04-25T14:23:54;9.70;99.90
7518;DHT22;3800;48.922;9.444;2023-04-25T14:26:23;9.80;99.90
7518;DHT22;3800;48.922;9.444;2023-04-25T14:28:51;10.00;99.90
7518;DHT22;3800;48.922;9.444;2023-04-25T14:31:20;10.60;99.90
7518;DHT22;3800;48.922;9.444;2023-04-25T14:33:48;10.50;99.90
7518;DHT22;3800;48.922;9.444;2023-04-25T14:36:16;10.80;99.90
7518;DHT22;3800;48.922;9.444;2023-04-25T14:38:45;10.70;99.90
7518;DHT22;3800;48.922;9.444;2023-04-25T14:41:14;10.70;99.90
7518;DHT22;3800;48.922;9.444;2023-04-25T14:43:43;10.50;99.90
7518;DHT22;3800;48.922;9.444;2023-04-25T14:46:11;10.50;99.90
7518;DHT22;3800;48.922;9.444;2023-04-25T14:48:39;10.50;99.90
7518;DHT22;3800;48.922;9.444;2023-04-25T14:51:07;10.40;99.90
7518;DHT22;3800;48.922;9.444;2023-04-25T14:53:36;10.30;99.90
7518;DHT22;3800;48.922;9.444;2023-04-25T14:56:04;10.30;99.90
7518;DHT22;3800;48.922;9.444;2023-04-25T14:58:33;10.30;99.90
7518;DHT22;3800;48.922;9.444;2023-04-25T15:01:01;10.30;99.90
7518;DHT22;3800;48.922;9.444;2023-04-25T15:03:29;10.40;99.90
7518;DHT22;3800;48.922;9.444;2023-04-25T15:05:57;10.40;99.90
7518;DHT22;3800;48.922;9.444;2023-04-25T15:08:25;10.30;99.90
7518;DHT22;3800;48.922;9.444;2023-04-25T15:10:54;10.20;99.90
7518;DHT22;3800;48.922;9.444;2023-04-25T15:13:22;10.10;99.90
7518;DHT22;3800;48.922;9.444;2023-04-25T15:15:50;10.00;99.90
7518;DHT22;3800;48.922;9.444;2023-04-25T15:18:19;10.00;99.90
7518;DHT22;3800;48.922;9.444;2023-04-25T15:20:51;10.00;99.90
7518;DHT22;3800;48.922;9.444;2023-04-25T15:23:19;9.90;99.90
7518;DHT22;3800;48.922;9.444;2023-04-25T15:25:50;9.90;99.90
7518;DHT22;3800;48.922;9.444;2023-04-25T15:28:16;10.00;99.90
7518;DHT22;3800;48.922;9.444;2023-04-25T15:30:44;10.00;99.90
7518;DHT22;3800;48.922;9.444;2023-04-25T15:33:13;10.10;99.90
7518;DHT22;3800;48.922;9.444;2023-04-25T15:35:41;10.20;99.90
7518;DHT22;3800;48.922;9.444;2023-04-25T15:38:09;10.20;99.90
7518;DHT22;3800;48.922;9.444;2023-04-25T15:40:37;10.10;99.90
7518;DHT22;3800;48.922;9.444;2023-04-25T15:43:06;10.10;99.90
7518;DHT22;3800;48.922;9.444;2023-04-25T15:45:34;10.10;99.90
7518;DHT22;3800;48.922;9.444;2023-04-25T15:48:02;10.00;99.90
7518;DHT22;3800;48.922;9.444;2023-04-25T15:50:31;10.00;99.90
7518;DHT22;3800;48.922;9.444;2023-04-25T15:52:59;10.00;99.90
7518;DHT22;3800;48.922;9.444;2023-04-25T15:55:27;10.00;99.90
7518;DHT22;3800;48.922;9.444;2023-04-25T15:57:56;10.10;99.90
7518;DHT22;3800;48.922;9.444;2023-04-25T16:00:24;10.10;99.90
7518;DHT22;3800;48.922;9.444;2023-04-25T16:02:53;10.20;99.90
7518;DHT22;3800;48.922;9.444;2023-04-25T16:05:22;10.60;99.90
7518;DHT22;3800;48.922;9.444;2023-04-25T16:07:50;10.60;99.90
7518;DHT22;3800;48.922;9.444;2023-04-25T16:10:19;11.00;99.90
7518;DHT22;3800;48.922;9.444;2023-04-25T16:12:48;11.00;99.90
7518;DHT22;3800;48.922;9.444;2023-04-25T16:15:16;11.20;99.90
7518;DHT22;3800;48.922;9.444;2023-04-25T16:17:44;11.20;99.90
7518;DHT22;3800;48.922;9.444;2023-04-25T16:20:12;11.00;99.90
7518;DHT22;3800;48.922;9.444;2023-04-25T16:22:41;10.80;99.90
7518;DHT22;3800;48.922;9.444;2023-04-25T16:25:09;10.70;99.90
7518;DHT22;3800;48.922;9.444;2023-04-25T16:27:37;10.60;99.90